createdAt,value
2022-12-25T00:00:38.921Z,100
2022-12-25T00:02:39.083Z,100
2022-12-25T00:03:38.994Z,100
2022-12-25T00:04:38.920Z,100
2022-12-25T00:05:38.885Z,100
2022-12-25T00:06:38.887Z,100
2022-12-25T00:08:38.896Z,100
2022-12-25T00:09:38.893Z,100
2022-12-25T00:10:45.039Z,100
2022-12-25T00:11:38.879Z,100
2022-12-25T00:12:38.909Z,100
2022-12-25T00:13:38.896Z,100
2022-12-25T00:14:38.886Z,100
2022-12-25T00:15:38.888Z,100
2022-12-25T00:16:39.020Z,100
2022-12-25T00:17:38.944Z,100
2022-12-25T00:18:38.892Z,100
2022-12-25T00:19:38.888Z,100
2022-12-25T00:20:38.882Z,100
2022-12-25T00:21:38.888Z,100
2022-12-25T00:23:38.917Z,100
2022-12-25T00:24:38.898Z,100
2022-12-25T00:25:38.895Z,100
2022-12-25T00:26:38.912Z,100
2022-12-25T00:27:38.895Z,100
2022-12-25T00:28:38.937Z,100
2022-12-25T00:29:38.894Z,100
2022-12-25T00:30:38.889Z,100
2022-12-25T00:31:38.998Z,100
2022-12-25T00:32:38.902Z,100
2022-12-25T00:33:38.895Z,100
2022-12-25T00:34:38.900Z,100
2022-12-25T00:35:38.926Z,100
2022-12-25T00:36:41.834Z,100
2022-12-25T00:37:38.930Z,100
2022-12-25T00:38:38.905Z,100
2022-12-25T00:39:38.887Z,100
2022-12-25T00:40:38.893Z,100
2022-12-25T00:41:38.910Z,100
2022-12-25T00:42:38.898Z,100
2022-12-25T00:43:38.905Z,100
2022-12-25T00:44:38.889Z,100
2022-12-25T00:45:38.928Z,100
2022-12-25T00:46:38.983Z,100
2022-12-25T00:47:38.890Z,100
2022-12-25T00:48:38.907Z,100
2022-12-25T00:49:38.893Z,100
2022-12-25T00:50:38.901Z,100
2022-12-25T00:51:38.900Z,100
2022-12-25T00:52:38.900Z,100
2022-12-25T00:53:38.929Z,100
2022-12-25T00:54:38.900Z,100
2022-12-25T00:55:38.903Z,100
2022-12-25T00:56:38.894Z,100
2022-12-25T00:57:38.901Z,100
2022-12-25T00:58:38.903Z,100
2022-12-25T00:59:38.902Z,100
2022-12-25T01:00:38.947Z,100
2022-12-25T01:01:39.185Z,100
2022-12-25T01:02:39.102Z,100
2022-12-25T01:03:38.903Z,100
2022-12-25T01:04:38.900Z,100
2022-12-25T01:05:38.909Z,100
2022-12-25T01:06:39.010Z,100
2022-12-25T01:08:00.958Z,100
2022-12-25T01:08:38.903Z,100
2022-12-25T01:09:38.906Z,100
2022-12-25T01:10:38.898Z,100
2022-12-25T01:11:38.905Z,100
2022-12-25T01:12:38.903Z,100
2022-12-25T01:13:38.904Z,100
2022-12-25T01:14:38.931Z,100
2022-12-25T01:15:38.921Z,100
2022-12-25T01:16:39.026Z,100
2022-12-25T01:17:38.900Z,100
2022-12-25T01:18:38.921Z,100
2022-12-25T01:19:38.909Z,100
2022-12-25T01:20:38.914Z,100
2022-12-25T01:21:38.905Z,100
2022-12-25T01:22:38.901Z,100
2022-12-25T01:23:38.930Z,100
2022-12-25T01:24:38.914Z,100
2022-12-25T01:25:38.897Z,100
2022-12-25T01:26:38.910Z,100
2022-12-25T01:27:38.916Z,100
2022-12-25T01:28:38.920Z,100
2022-12-25T01:29:38.926Z,100
2022-12-25T01:30:38.946Z,100
2022-12-25T01:31:39.047Z,100
2022-12-25T01:32:38.918Z,100
2022-12-25T01:33:38.910Z,100
2022-12-25T01:35:38.899Z,100
2022-12-25T01:36:38.933Z,100
2022-12-25T01:37:38.947Z,100
2022-12-25T01:38:38.916Z,100
2022-12-25T01:39:38.905Z,100
2022-12-25T01:41:38.923Z,100
2022-12-25T01:42:38.923Z,100
2022-12-25T01:43:38.909Z,100
2022-12-25T01:44:38.903Z,100
2022-12-25T01:45:38.980Z,100
2022-12-25T01:46:38.932Z,100
2022-12-25T01:47:38.909Z,100
2022-12-25T01:48:38.984Z,100
2022-12-25T01:49:38.915Z,100
2022-12-25T01:50:38.944Z,100
2022-12-25T01:51:38.935Z,100
2022-12-25T01:52:38.915Z,100
2022-12-25T01:53:38.919Z,100
2022-12-25T01:54:38.906Z,100
2022-12-25T01:56:38.926Z,100
2022-12-25T01:57:38.930Z,100
2022-12-25T01:58:38.915Z,100
2022-12-25T01:59:38.921Z,100
2022-12-25T02:00:38.967Z,100
2022-12-25T02:01:39.003Z,100
2022-12-25T02:02:39.100Z,100
2022-12-25T02:03:38.916Z,100
2022-12-25T02:04:39.248Z,100
2022-12-25T02:05:38.922Z,100
2022-12-25T02:06:38.934Z,100
2022-12-25T02:07:31.944Z,100
2022-12-25T02:08:39.054Z,100
2022-12-25T02:09:38.915Z,100
2022-12-25T02:10:39.001Z,100
2022-12-25T02:11:38.936Z,100
2022-12-25T02:12:38.938Z,100
2022-12-25T02:13:38.933Z,100
2022-12-25T02:14:38.933Z,100
2022-12-25T02:15:38.921Z,100
2022-12-25T02:16:58.317Z,100
2022-12-25T02:17:38.924Z,100
2022-12-25T02:18:38.926Z,100
2022-12-25T02:19:38.967Z,100
2022-12-25T02:20:38.933Z,100
2022-12-25T02:21:38.967Z,100
2022-12-25T02:22:38.975Z,100
2022-12-25T02:23:38.945Z,100
2022-12-25T02:24:38.965Z,100
2022-12-25T02:25:38.958Z,100
2022-12-25T02:26:38.952Z,100
2022-12-25T02:27:38.940Z,100
2022-12-25T02:28:43.137Z,100
2022-12-25T02:29:39.013Z,100
2022-12-25T02:30:38.942Z,100
2022-12-25T02:31:38.989Z,100
2022-12-25T02:32:38.965Z,100
2022-12-25T02:33:38.943Z,100
2022-12-25T02:34:38.942Z,100
2022-12-25T02:35:38.948Z,100
2022-12-25T02:36:39.028Z,100
2022-12-25T02:37:38.959Z,100
2022-12-25T02:38:38.957Z,100
2022-12-25T02:39:38.957Z,100
2022-12-25T02:40:38.933Z,100
2022-12-25T02:41:38.936Z,100
2022-12-25T02:42:38.932Z,100
2022-12-25T02:43:38.933Z,100
2022-12-25T02:44:38.944Z,100
2022-12-25T02:45:38.948Z,100
2022-12-25T02:46:38.955Z,100
2022-12-25T02:47:38.954Z,100
2022-12-25T02:48:38.955Z,100
2022-12-25T02:49:38.969Z,100
2022-12-25T02:50:38.943Z,100
2022-12-25T02:51:38.940Z,100
2022-12-25T02:52:38.936Z,100
2022-12-25T02:53:38.935Z,100
2022-12-25T02:54:38.969Z,100
2022-12-25T02:55:38.981Z,100
2022-12-25T02:56:38.973Z,100
2022-12-25T02:57:38.966Z,100
2022-12-25T02:58:38.967Z,100
2022-12-25T02:59:38.951Z,100
2022-12-25T03:00:38.951Z,100
2022-12-25T03:01:39.089Z,100
2022-12-25T03:02:38.978Z,100
2022-12-25T03:03:39.086Z,100
2022-12-25T03:04:38.969Z,100
2022-12-25T03:05:38.978Z,100
2022-12-25T03:06:38.950Z,100
2022-12-25T03:08:38.953Z,100
2022-12-25T03:09:38.994Z,100
2022-12-25T03:10:38.970Z,100
2022-12-25T03:11:38.949Z,100
2022-12-25T03:12:38.945Z,100
2022-12-25T03:13:38.975Z,100
2022-12-25T03:14:38.945Z,100
2022-12-25T03:15:38.963Z,100
2022-12-25T03:16:39.129Z,100
2022-12-25T03:17:38.979Z,100
2022-12-25T03:18:40.093Z,100
2022-12-25T03:19:38.947Z,100
2022-12-25T03:20:38.947Z,100
2022-12-25T03:21:38.965Z,100
2022-12-25T03:22:38.945Z,100
2022-12-25T03:23:38.964Z,100
2022-12-25T03:24:38.960Z,100
2022-12-25T03:25:38.970Z,100
2022-12-25T03:26:38.951Z,100
2022-12-25T03:27:38.975Z,100
2022-12-25T03:28:38.963Z,100
2022-12-25T03:29:38.958Z,100
2022-12-25T03:30:39.056Z,100
2022-12-25T03:31:38.954Z,100
2022-12-25T03:32:38.973Z,100
2022-12-25T03:33:46.258Z,100
2022-12-25T03:34:38.977Z,100
2022-12-25T03:35:38.950Z,100
2022-12-25T03:36:38.989Z,100
2022-12-25T03:37:39.026Z,100
2022-12-25T03:38:38.953Z,100
2022-12-25T03:39:38.967Z,100
2022-12-25T03:40:38.950Z,100
2022-12-25T03:41:38.973Z,100
2022-12-25T03:42:38.969Z,100
2022-12-25T03:43:38.947Z,100
2022-12-25T03:44:38.992Z,100
2022-12-25T03:45:38.973Z,100
2022-12-25T03:46:39.011Z,100
2022-12-25T03:47:38.980Z,100
2022-12-25T03:48:38.956Z,100
2022-12-25T03:50:38.953Z,100
2022-12-25T03:51:38.985Z,100
2022-12-25T03:52:38.955Z,100
2022-12-25T03:53:38.959Z,100
2022-12-25T03:54:38.955Z,100
2022-12-25T03:55:38.957Z,100
2022-12-25T03:56:38.956Z,100
2022-12-25T03:57:38.957Z,100
2022-12-25T03:58:39.023Z,100
2022-12-25T03:59:38.969Z,100
2022-12-25T04:00:38.965Z,100
2022-12-25T04:01:39.058Z,100
2022-12-25T04:02:39.208Z,100
2022-12-25T04:03:39.083Z,100
2022-12-25T04:04:38.971Z,100
2022-12-25T04:05:39.037Z,100
2022-12-25T04:06:38.961Z,100
2022-12-25T04:07:38.969Z,100
2022-12-25T04:08:38.965Z,100
2022-12-25T04:09:38.963Z,100
2022-12-25T04:10:38.974Z,100
2022-12-25T04:11:38.978Z,100
2022-12-25T04:12:38.997Z,100
2022-12-25T04:13:38.963Z,100
2022-12-25T04:14:38.981Z,100
2022-12-25T04:15:39.065Z,100
2022-12-25T04:16:38.971Z,100
2022-12-25T04:17:38.960Z,100
2022-12-25T04:18:38.964Z,100
2022-12-25T04:19:39.010Z,100
2022-12-25T04:20:38.997Z,100
2022-12-25T04:21:38.976Z,100
2022-12-25T04:22:38.994Z,100
2022-12-25T04:23:38.993Z,100
2022-12-25T04:24:38.969Z,100
2022-12-25T04:25:38.968Z,100
2022-12-25T04:26:38.986Z,100
2022-12-25T04:27:38.975Z,100
2022-12-25T04:28:49.004Z,100
2022-12-25T04:29:38.974Z,100
2022-12-25T04:30:38.970Z,100
2022-12-25T04:31:39.116Z,100
2022-12-25T04:32:38.989Z,100
2022-12-25T04:33:38.973Z,100
2022-12-25T04:34:38.982Z,100
2022-12-25T04:35:38.982Z,100
2022-12-25T04:36:38.977Z,100
2022-12-25T04:37:38.998Z,100
2022-12-25T04:38:39.007Z,100
2022-12-25T04:39:38.997Z,100
2022-12-25T04:40:38.971Z,100
2022-12-25T04:41:38.987Z,100
2022-12-25T04:42:38.984Z,100
2022-12-25T04:43:38.973Z,100
2022-12-25T04:44:38.974Z,100
2022-12-25T04:45:38.973Z,100
2022-12-25T04:46:39.046Z,100
2022-12-25T04:47:38.978Z,100
2022-12-25T04:48:39.019Z,100
2022-12-25T04:49:38.973Z,100
2022-12-25T04:50:38.975Z,100
2022-12-25T04:51:38.976Z,100
2022-12-25T04:52:38.964Z,100
2022-12-25T04:53:38.970Z,100
2022-12-25T04:54:39.053Z,100
2022-12-25T04:55:38.972Z,100
2022-12-25T04:56:45.301Z,100
2022-12-25T04:57:38.996Z,100
2022-12-25T04:58:38.978Z,100
2022-12-25T04:59:39.002Z,100
2022-12-25T05:00:38.976Z,100
2022-12-25T05:01:39.147Z,100
2022-12-25T05:02:39.200Z,100
2022-12-25T05:03:39.075Z,100
2022-12-25T05:04:38.988Z,100
2022-12-25T05:05:38.981Z,100
2022-12-25T05:06:39.004Z,100
2022-12-25T05:07:38.975Z,100
2022-12-25T05:08:38.978Z,100
2022-12-25T05:09:38.979Z,100
2022-12-25T05:10:38.977Z,100
2022-12-25T05:11:39.016Z,100
2022-12-25T05:12:38.985Z,100
2022-12-25T05:13:38.969Z,100
2022-12-25T05:14:38.992Z,100
2022-12-25T05:15:39.014Z,100
2022-12-25T05:16:38.971Z,100
2022-12-25T05:17:38.996Z,100
2022-12-25T05:18:38.996Z,100
2022-12-25T05:19:39.025Z,100
2022-12-25T05:20:40.479Z,100
2022-12-25T05:21:38.989Z,100
2022-12-25T05:22:38.999Z,100
2022-12-25T05:23:38.992Z,100
2022-12-25T05:24:38.989Z,100
2022-12-25T05:25:38.983Z,100
2022-12-25T05:26:38.986Z,100
2022-12-25T05:27:39.053Z,100
2022-12-25T05:29:38.988Z,100
2022-12-25T05:30:39.024Z,100
2022-12-25T05:31:39.045Z,100
2022-12-25T05:32:38.982Z,100
2022-12-25T05:33:38.980Z,100
2022-12-25T05:34:39.001Z,100
2022-12-25T05:35:38.983Z,100
2022-12-25T05:37:38.979Z,100
2022-12-25T05:38:38.982Z,100
2022-12-25T05:39:39.009Z,100
2022-12-25T05:40:39.008Z,100
2022-12-25T05:41:38.987Z,100
2022-12-25T05:42:38.985Z,100
2022-12-25T05:44:39.049Z,100
2022-12-25T05:45:39.003Z,100
2022-12-25T05:46:39.118Z,100
2022-12-25T05:47:39.008Z,100
2022-12-25T05:48:38.985Z,100
2022-12-25T05:49:38.986Z,100
2022-12-25T05:50:39.056Z,100
2022-12-25T05:51:39.011Z,100
2022-12-25T05:52:38.998Z,100
2022-12-25T05:53:39.006Z,100
2022-12-25T05:54:38.989Z,100
2022-12-25T05:55:38.989Z,100
2022-12-25T05:56:38.991Z,100
2022-12-25T05:57:39.043Z,100
2022-12-25T05:58:39.007Z,100
2022-12-25T05:59:38.993Z,100
2022-12-25T06:00:39.000Z,100
2022-12-25T06:01:39.179Z,100
2022-12-25T06:02:39.261Z,100
2022-12-25T06:03:39.069Z,100
2022-12-25T06:04:39.046Z,100
2022-12-25T06:05:39.001Z,100
2022-12-25T06:06:39.002Z,100
2022-12-25T06:07:38.992Z,100
2022-12-25T06:08:39.014Z,100
2022-12-25T06:09:39.000Z,100
2022-12-25T06:10:39.012Z,100
2022-12-25T06:11:39.067Z,100
2022-12-25T06:12:39.010Z,100
2022-12-25T06:13:39.004Z,100
2022-12-25T06:14:38.993Z,100
2022-12-25T06:15:39.004Z,100
2022-12-25T06:16:39.047Z,100
2022-12-25T06:17:38.990Z,100
2022-12-25T06:18:38.996Z,100
2022-12-25T06:19:39.000Z,100
2022-12-25T06:20:39.010Z,100
2022-12-25T06:21:39.031Z,100
2022-12-25T06:22:39.000Z,100
2022-12-25T06:23:39.054Z,100
2022-12-25T06:24:39.010Z,100
2022-12-25T06:25:39.025Z,100
2022-12-25T06:26:39.008Z,100
2022-12-25T06:27:38.997Z,100
2022-12-25T06:29:00.973Z,100
2022-12-25T06:29:39.091Z,100
2022-12-25T06:30:39.006Z,100
2022-12-25T06:31:39.460Z,100
2022-12-25T06:32:39.036Z,100
2022-12-25T06:33:39.015Z,100
2022-12-25T06:34:39.025Z,100
2022-12-25T06:35:39.028Z,100
2022-12-25T06:36:39.007Z,100
2022-12-25T06:37:39.002Z,100
2022-12-25T06:38:38.999Z,100
2022-12-25T06:39:39.020Z,100
2022-12-25T06:40:39.015Z,100
2022-12-25T06:41:39.049Z,100
2022-12-25T06:42:39.004Z,100
2022-12-25T06:43:39.020Z,100
2022-12-25T06:44:39.054Z,100
2022-12-25T06:45:39.098Z,100
2022-12-25T06:46:39.012Z,100
2022-12-25T06:47:39.005Z,100
2022-12-25T06:48:39.066Z,100
2022-12-25T06:49:39.006Z,100
2022-12-25T06:50:39.003Z,100
2022-12-25T06:51:39.031Z,100
2022-12-25T06:52:39.017Z,100
2022-12-25T06:53:39.867Z,100
2022-12-25T06:54:39.012Z,100
2022-12-25T06:55:39.053Z,100
2022-12-25T06:56:39.003Z,100
2022-12-25T06:57:39.004Z,100
2022-12-25T06:58:39.004Z,100
2022-12-25T06:59:39.004Z,100
2022-12-25T07:00:39.059Z,100
2022-12-25T07:01:39.138Z,100
2022-12-25T07:02:39.183Z,100
2022-12-25T07:03:39.038Z,100
2022-12-25T07:04:39.220Z,100
2022-12-25T07:05:39.019Z,100
2022-12-25T07:06:39.008Z,100
2022-12-25T07:07:39.016Z,100
2022-12-25T07:08:39.018Z,100
2022-12-25T07:09:39.410Z,100
2022-12-25T07:10:39.016Z,100
2022-12-25T07:11:39.024Z,100
2022-12-25T07:12:39.021Z,100
2022-12-25T07:13:39.008Z,100
2022-12-25T07:14:39.023Z,100
2022-12-25T07:15:39.011Z,100
2022-12-25T07:16:39.081Z,100
2022-12-25T07:17:39.016Z,100
2022-12-25T07:18:39.036Z,100
2022-12-25T07:19:44.744Z,100
2022-12-25T07:20:39.076Z,100
2022-12-25T07:21:39.091Z,100
2022-12-25T07:22:39.016Z,100
2022-12-25T07:23:39.064Z,100
2022-12-25T07:24:39.024Z,100
2022-12-25T07:25:39.021Z,100
2022-12-25T07:26:39.024Z,100
2022-12-25T07:27:39.022Z,100
2022-12-25T07:29:39.094Z,100
2022-12-25T07:30:39.013Z,100
2022-12-25T07:31:39.064Z,100
2022-12-25T07:32:39.023Z,100
2022-12-25T07:33:39.020Z,100
2022-12-25T07:34:39.043Z,100
2022-12-25T07:35:39.012Z,100
2022-12-25T07:36:39.007Z,100
2022-12-25T07:37:39.020Z,100
2022-12-25T07:38:39.016Z,100
2022-12-25T07:39:39.016Z,100
2022-12-25T07:40:39.016Z,100
2022-12-25T07:41:39.015Z,100
2022-12-25T07:42:39.027Z,100
2022-12-25T07:43:39.029Z,100
2022-12-25T07:44:39.021Z,100
2022-12-25T07:45:39.037Z,100
2022-12-25T07:46:39.019Z,100
2022-12-25T07:47:39.011Z,100
2022-12-25T07:48:39.022Z,100
2022-12-25T07:49:39.020Z,100
2022-12-25T07:50:39.045Z,100
2022-12-25T07:51:39.035Z,100
2022-12-25T07:52:43.447Z,100
2022-12-25T07:53:39.016Z,100
2022-12-25T07:54:39.020Z,100
2022-12-25T07:55:39.010Z,100
2022-12-25T07:56:39.029Z,100
2022-12-25T07:57:39.017Z,100
2022-12-25T07:58:39.039Z,100
2022-12-25T07:59:39.046Z,100
2022-12-25T08:00:39.059Z,100
2022-12-25T08:01:39.198Z,100
2022-12-25T08:02:39.244Z,100
2022-12-25T08:03:39.188Z,100
2022-12-25T08:04:39.022Z,100
2022-12-25T08:05:39.056Z,100
2022-12-25T08:06:39.028Z,100
2022-12-25T08:07:39.035Z,99.7
2022-12-25T08:08:39.038Z,99.4
2022-12-25T08:09:39.028Z,99.4
2022-12-25T08:10:39.053Z,99.5
2022-12-25T08:11:39.033Z,99.7
2022-12-25T08:12:39.027Z,99.5
2022-12-25T08:13:39.030Z,99.5
2022-12-25T08:14:39.045Z,99.3
2022-12-25T08:15:39.039Z,99.4
2022-12-25T08:16:39.130Z,99.2
2022-12-25T08:17:39.034Z,99.3
2022-12-25T08:18:39.041Z,99.5
2022-12-25T08:19:39.024Z,99.6
2022-12-25T08:20:39.044Z,99.5
2022-12-25T08:21:39.031Z,99.3
2022-12-25T08:22:39.035Z,99.4
2022-12-25T08:23:39.059Z,99.3
2022-12-25T08:24:39.052Z,99.6
2022-12-25T08:25:39.057Z,99.6
2022-12-25T08:26:39.034Z,99.5
2022-12-25T08:27:39.044Z,99.5
2022-12-25T08:28:39.039Z,99.4
2022-12-25T08:29:39.034Z,99.5
2022-12-25T08:30:39.164Z,99.5
2022-12-25T08:31:45.736Z,99.6
2022-12-25T08:32:39.035Z,99.9
2022-12-25T08:33:39.062Z,99.9
2022-12-25T08:34:39.041Z,100
2022-12-25T08:35:39.085Z,100
2022-12-25T08:36:39.108Z,100
2022-12-25T08:37:39.033Z,100
2022-12-25T08:38:39.064Z,100
2022-12-25T08:39:39.044Z,100
2022-12-25T08:40:39.040Z,100
2022-12-25T08:41:39.047Z,100
2022-12-25T08:42:39.079Z,100
2022-12-25T08:43:39.058Z,100
2022-12-25T08:44:39.047Z,100
2022-12-25T08:45:39.055Z,100
2022-12-25T08:46:39.135Z,100
2022-12-25T08:47:39.214Z,100
2022-12-25T08:48:39.054Z,100
2022-12-25T08:49:39.056Z,100
2022-12-25T08:50:39.072Z,100
2022-12-25T08:51:39.049Z,100
2022-12-25T08:52:39.056Z,100
2022-12-25T08:53:39.053Z,100
2022-12-25T08:54:39.078Z,100
2022-12-25T08:55:39.056Z,100
2022-12-25T08:56:39.060Z,100
2022-12-25T08:57:39.057Z,100
2022-12-25T08:58:39.050Z,100
2022-12-25T08:59:39.048Z,100
2022-12-25T09:00:39.058Z,100
2022-12-25T09:02:39.175Z,100
2022-12-25T09:03:39.179Z,100
2022-12-25T09:04:39.094Z,100
2022-12-25T09:05:39.042Z,100
2022-12-25T09:06:39.044Z,100
2022-12-25T09:07:39.088Z,100
2022-12-25T09:08:44.228Z,100
2022-12-25T09:09:39.045Z,100
2022-12-25T09:10:39.067Z,100
2022-12-25T09:11:39.051Z,100
2022-12-25T09:12:39.072Z,100
2022-12-25T09:13:39.045Z,100
2022-12-25T09:14:39.057Z,100
2022-12-25T09:15:39.143Z,100
2022-12-25T09:16:39.040Z,100
2022-12-25T09:17:39.054Z,100
2022-12-25T09:18:39.044Z,100
2022-12-25T09:19:39.051Z,100
2022-12-25T09:20:39.069Z,100
2022-12-25T09:21:39.050Z,100
2022-12-25T09:22:39.058Z,100
2022-12-25T09:23:39.044Z,100
2022-12-25T09:24:39.045Z,100
2022-12-25T09:25:39.068Z,100
2022-12-25T09:26:39.053Z,100
2022-12-25T09:27:39.055Z,100
2022-12-25T09:28:39.052Z,100
2022-12-25T09:29:39.063Z,100
2022-12-25T09:30:39.106Z,100
2022-12-25T09:31:39.076Z,100
2022-12-25T09:32:39.135Z,100
2022-12-25T09:33:39.075Z,100
2022-12-25T09:34:39.074Z,100
2022-12-25T09:35:39.076Z,100
2022-12-25T09:36:39.081Z,100
2022-12-25T09:37:39.051Z,100
2022-12-25T09:38:39.086Z,100
2022-12-25T09:39:45.825Z,100
2022-12-25T09:40:39.113Z,100
2022-12-25T09:41:39.102Z,100
2022-12-25T09:42:39.058Z,100
2022-12-25T09:43:39.061Z,100
2022-12-25T09:44:39.818Z,100
2022-12-25T09:45:39.070Z,100
2022-12-25T09:46:39.116Z,100
2022-12-25T09:47:39.085Z,100
2022-12-25T09:48:39.065Z,100
2022-12-25T09:49:39.056Z,100
2022-12-25T09:50:39.060Z,100
2022-12-25T09:51:39.063Z,100
2022-12-25T09:52:39.082Z,100
2022-12-25T09:53:39.080Z,100
2022-12-25T09:54:39.067Z,100
2022-12-25T09:56:39.076Z,100
2022-12-25T09:57:39.053Z,100
2022-12-25T09:58:39.065Z,100
2022-12-25T09:59:39.055Z,100
2022-12-25T10:00:39.066Z,100
2022-12-25T10:01:39.243Z,100
2022-12-25T10:02:39.365Z,100
2022-12-25T10:03:39.093Z,100
2022-12-25T10:04:40.923Z,100
2022-12-25T10:05:39.149Z,100
2022-12-25T10:06:39.126Z,100
2022-12-25T10:07:39.086Z,100
2022-12-25T10:08:39.070Z,100
2022-12-25T10:10:01.885Z,100
2022-12-25T10:10:39.090Z,100
2022-12-25T10:11:39.066Z,100
2022-12-25T10:12:39.106Z,100
2022-12-25T10:13:39.097Z,100
2022-12-25T10:14:39.083Z,100
2022-12-25T10:15:43.453Z,100
2022-12-25T10:16:39.177Z,100
2022-12-25T10:17:39.067Z,100
2022-12-25T10:18:39.089Z,100
2022-12-25T10:19:39.078Z,100
2022-12-25T10:20:39.072Z,99.1
2022-12-25T10:21:39.058Z,97.7
2022-12-25T10:22:39.093Z,96.8
2022-12-25T10:23:39.086Z,96.2
2022-12-25T10:24:39.081Z,97.1
2022-12-25T10:25:39.087Z,98
2022-12-25T10:26:39.114Z,98.8
2022-12-25T10:27:39.092Z,100
2022-12-25T10:28:39.072Z,100
2022-12-25T10:29:39.090Z,100
2022-12-25T10:30:39.077Z,100
2022-12-25T10:31:39.126Z,100
2022-12-25T10:32:39.075Z,100
2022-12-25T10:33:39.068Z,100
2022-12-25T10:34:39.081Z,100
2022-12-25T10:35:39.078Z,100
2022-12-25T10:36:39.071Z,100
2022-12-25T10:37:39.097Z,100
2022-12-25T10:38:39.102Z,100
2022-12-25T10:39:45.841Z,100
2022-12-25T10:40:39.091Z,100
2022-12-25T10:41:39.075Z,100
2022-12-25T10:42:39.089Z,100
2022-12-25T10:43:39.088Z,100
2022-12-25T10:44:39.092Z,100
2022-12-25T10:45:39.146Z,100
2022-12-25T10:46:39.192Z,100
2022-12-25T10:47:39.113Z,100
2022-12-25T10:48:39.073Z,100
2022-12-25T10:49:39.075Z,100
2022-12-25T10:50:39.102Z,100
2022-12-25T10:51:39.072Z,100
2022-12-25T10:52:39.075Z,100
2022-12-25T10:53:39.104Z,100
2022-12-25T10:54:39.112Z,100
2022-12-25T10:55:39.108Z,100
2022-12-25T10:56:39.087Z,100
2022-12-25T10:57:39.080Z,100
2022-12-25T10:58:39.080Z,100
2022-12-25T10:59:39.104Z,100
2022-12-25T11:00:39.094Z,100
2022-12-25T11:01:39.165Z,100
2022-12-25T11:02:39.350Z,100
2022-12-25T11:03:39.236Z,100
2022-12-25T11:04:39.084Z,100
2022-12-25T11:05:39.166Z,100
2022-12-25T11:06:39.087Z,100
2022-12-25T11:07:39.082Z,100
2022-12-25T11:08:39.074Z,100
2022-12-25T11:09:32.984Z,100
2022-12-25T11:10:39.106Z,100
2022-12-25T11:11:39.108Z,100
2022-12-25T11:12:39.128Z,100
2022-12-25T11:13:39.086Z,100
2022-12-25T11:14:39.095Z,100
2022-12-25T11:15:39.180Z,100
2022-12-25T11:16:39.189Z,100
2022-12-25T11:17:39.157Z,100
2022-12-25T11:18:39.089Z,100
2022-12-25T11:19:39.097Z,100
2022-12-25T11:20:43.797Z,100
2022-12-25T11:21:39.082Z,100
2022-12-25T11:22:39.084Z,100
2022-12-25T11:23:39.081Z,100
2022-12-25T11:24:39.097Z,100
2022-12-25T11:25:39.099Z,100
2022-12-25T11:26:39.086Z,100
2022-12-25T11:27:39.110Z,100
2022-12-25T11:28:39.126Z,100
2022-12-25T11:29:39.105Z,100
2022-12-25T11:30:39.111Z,100
2022-12-25T11:31:39.172Z,100
2022-12-25T11:32:39.104Z,100
2022-12-25T11:33:39.089Z,100
2022-12-25T11:34:39.085Z,100
2022-12-25T11:35:39.104Z,100
2022-12-25T11:36:39.095Z,100
2022-12-25T11:37:39.105Z,100
2022-12-25T11:38:39.087Z,100
2022-12-25T11:39:39.096Z,100
2022-12-25T11:40:49.124Z,100
2022-12-25T11:42:39.122Z,100
2022-12-25T11:43:39.107Z,100
2022-12-25T11:44:39.100Z,100
2022-12-25T11:45:39.102Z,100
2022-12-25T11:46:39.993Z,100
2022-12-25T11:47:39.096Z,100
2022-12-25T11:48:39.091Z,100
2022-12-25T11:49:39.100Z,100
2022-12-25T11:50:39.095Z,100
2022-12-25T11:51:39.105Z,100
2022-12-25T11:52:39.090Z,100
2022-12-25T11:53:39.124Z,100
2022-12-25T11:54:39.095Z,100
2022-12-25T11:55:39.103Z,100
2022-12-25T11:56:39.098Z,100
2022-12-25T11:57:39.105Z,100
2022-12-25T11:58:39.095Z,100
2022-12-25T11:59:39.091Z,100
2022-12-25T12:00:39.103Z,100
2022-12-25T12:01:39.233Z,100
2022-12-25T12:02:39.348Z,100
2022-12-25T12:03:39.131Z,100
2022-12-25T12:04:42.979Z,100
2022-12-25T12:05:39.106Z,100
2022-12-25T12:06:39.108Z,100
2022-12-25T12:07:39.109Z,100
2022-12-25T12:08:39.094Z,100
2022-12-25T12:09:39.109Z,100
2022-12-25T12:10:39.100Z,100
2022-12-25T12:11:39.120Z,100
2022-12-25T12:12:44.928Z,100
2022-12-25T12:13:39.129Z,100
2022-12-25T12:14:39.095Z,100
2022-12-25T12:15:39.107Z,100
2022-12-25T12:16:39.196Z,100
2022-12-25T12:17:39.105Z,100
2022-12-25T12:18:39.107Z,100
2022-12-25T12:19:39.140Z,100
2022-12-25T12:20:39.131Z,100
2022-12-25T12:21:39.105Z,100
2022-12-25T12:22:39.108Z,100
2022-12-25T12:23:39.115Z,100
2022-12-25T12:24:39.104Z,100
2022-12-25T12:25:39.105Z,100
2022-12-25T12:26:39.114Z,100
2022-12-25T12:27:39.107Z,100
2022-12-25T12:28:39.101Z,100
2022-12-25T12:29:39.115Z,100
2022-12-25T12:30:39.106Z,100
2022-12-25T12:31:39.200Z,100
2022-12-25T12:32:39.122Z,100
2022-12-25T12:33:39.111Z,100
2022-12-25T12:34:39.115Z,100
2022-12-25T12:35:39.122Z,100
2022-12-25T12:36:39.133Z,100
2022-12-25T12:37:39.114Z,100
2022-12-25T12:38:39.106Z,100
2022-12-25T12:39:39.112Z,100
2022-12-25T12:41:39.105Z,100
2022-12-25T12:42:39.107Z,100
2022-12-25T12:43:39.123Z,100
2022-12-25T12:44:39.143Z,100
2022-12-25T12:45:39.149Z,100
2022-12-25T12:46:39.220Z,100
2022-12-25T12:47:39.112Z,100
2022-12-25T12:48:39.117Z,100
2022-12-25T12:49:39.123Z,100
2022-12-25T12:50:39.116Z,100
2022-12-25T12:51:39.108Z,100
2022-12-25T12:52:39.114Z,100
2022-12-25T12:53:39.118Z,100
2022-12-25T12:54:39.122Z,100
2022-12-25T12:55:39.114Z,100
2022-12-25T12:56:39.120Z,100
2022-12-25T12:57:39.178Z,100
2022-12-25T12:58:39.119Z,100
2022-12-25T12:59:39.151Z,100
2022-12-25T13:00:39.147Z,100
2022-12-25T13:01:39.397Z,100
2022-12-25T13:02:39.251Z,100
2022-12-25T13:03:39.121Z,100
2022-12-25T13:04:39.131Z,100
2022-12-25T13:05:39.119Z,100
2022-12-25T13:06:39.120Z,100
2022-12-25T13:07:39.120Z,100
2022-12-25T13:08:39.137Z,100
2022-12-25T13:09:39.115Z,100
2022-12-25T13:10:39.132Z,100
2022-12-25T13:11:39.123Z,100
2022-12-25T13:12:39.119Z,100
2022-12-25T13:13:39.120Z,100
2022-12-25T13:14:39.149Z,100
2022-12-25T13:15:39.143Z,100
2022-12-25T13:16:39.234Z,100
2022-12-25T13:17:39.133Z,100
2022-12-25T13:18:39.130Z,100
2022-12-25T13:19:39.125Z,100
2022-12-25T13:20:39.125Z,100
2022-12-25T13:21:39.131Z,100
2022-12-25T13:22:39.124Z,100
2022-12-25T13:23:39.125Z,100
2022-12-25T13:24:39.127Z,100
2022-12-25T13:25:39.137Z,100
2022-12-25T13:26:39.124Z,100
2022-12-25T13:27:39.121Z,100
2022-12-25T13:28:39.119Z,100
2022-12-25T13:29:39.122Z,100
2022-12-25T13:30:39.134Z,100
2022-12-25T13:31:39.159Z,100
2022-12-25T13:32:39.172Z,100
2022-12-25T13:33:39.154Z,100
2022-12-25T13:34:39.167Z,100
2022-12-25T13:35:39.136Z,100
2022-12-25T13:36:39.134Z,100
2022-12-25T13:37:39.129Z,100
2022-12-25T13:38:39.127Z,100
2022-12-25T13:39:39.129Z,100
2022-12-25T13:41:00.949Z,100
2022-12-25T13:41:39.140Z,100
2022-12-25T13:43:39.131Z,100
2022-12-25T13:44:39.135Z,100
2022-12-25T13:45:39.223Z,100
2022-12-25T13:46:39.160Z,100
2022-12-25T13:47:39.151Z,100
2022-12-25T13:48:39.140Z,100
2022-12-25T13:49:39.134Z,100
2022-12-25T13:50:39.174Z,100
2022-12-25T13:51:39.137Z,100
2022-12-25T13:52:39.139Z,100
2022-12-25T13:53:39.156Z,100
2022-12-25T13:54:39.136Z,100
2022-12-25T13:55:39.141Z,100
2022-12-25T13:56:39.133Z,100
2022-12-25T13:57:39.137Z,100
2022-12-25T13:58:39.131Z,100
2022-12-25T13:59:39.139Z,100
2022-12-25T14:00:39.214Z,100
2022-12-25T14:01:39.338Z,100